Pampa, TX (79066)

11:52 PM CDT on July 24, 2014 (GMT -0500)
WT_Meso Pampa 2E (MPAMT2) Elev 3215 ft | 35.54 °N, 100.93 °W | Change Station

Current weather conditions updated 57 minutes ago

Clear
Clear
79 °F
Feels Like 81 °F
N
14
Wind Variable Wind from SSE
Gusts 19.0 mph

Tomorrow is forecast to be Much Warmer than today.

Today
High -- | Low -- °F
--% Chance of Precip.
Yesterday
High -- | Low -- °F
Precip. -- in
6:46 AM 8:54 PM
Waning Crescent, 3% visible
Pressure 30.09 in
Visibility 10.0 miles
Clouds Clear
Heat Index 81 °F
Dew Point 63 °F
Humidity 60%
Rainfall -999.00 in
Snow Depth Not available.
UV 0 out of 12
Pollen 5.10 out of 12
Air Quality Not available.
Flu Activity Not available.
METAR KPPA 250435Z AUTO 17014KT 10SM CLR 27/16 A3009 RMK AO2 T02670161

More Conditions Fewer Conditions

Pressure 30.09 in
Visibility 10.0 miles
Clouds Clear
Heat Index 81 °F
Dew Point 63 °F
Humidity 60%
Rainfall -999.00 in
Snow Depth Not available.
UV 0 out of 12
Pollen 5.10 out of 12
Air Quality Not available.
Flu Activity Not available.
METAR KPPA 250435Z AUTO 17014KT 10SM CLR 27/16 A3009 RMK AO2 T02670161

More Conditions Fewer Conditions

10-Day Weather Forecast

Almanac

Astronomy

Jul. 24, 2014 Rise Set
Actual Time 6:46 AM CDT 8:54 PM CDT
Civil Twilight 6:17 AM CDT 9:22 PM CDT
Nautical Twilight 5:42 AM CDT 9:57 PM CDT
Astronomical Twilight 5:04 AM CDT 10:35 PM CDT
Moon 4:55 AM CDT (7/24) 7:11 PM CDT (7/24)
Length of Visible Light 15h 05m
Length of Day
14h 07m
Tomorrow will be 1m 29s shorter.
Waning Crescent, 3% of the Moon is Illuminated
Jul 25
Waning Crescent
Jul 26
New
Aug 3
First Quarter
Aug 10
Full
Aug 17
Last Quarter

Yesterday's Extremes

State Highs State Lows

Community

WunderPhotos

Upload Photos

1,737,244 photos uploaded!

Nearby

Snow Depth

Station Depth Elevation
No new snow has been reported.

Earthquake Activity

City Distance Mag. Time & Date
No recent earthquake activity has been reported nearby.
Minimum magnitude displayed is 2.5.

Coastal Water Temperatures

Place Temperature
No Stations Reporting

Nearby Weather Stations

Station Location Temp. Heat Index Dew Point Humidity Wind Precip. Elev Updated Type
WT_Meso Pampa 2E, Pampa, TX 79 °F 81 °F 63 °F 60% SSE  at  14 mph 0.00 in / hr 3215 ft 10:55 PM CDT MADIS
HADS LEFORS WEATHER STATION TX, Lefors, TX 79 °F 81 °F 67 °F 66% SSE  at  1 mph 0.00 in / hr 2798 ft 11:00 PM CDT MADIS

Show More Stations Show Fewer Stations